This is the latest recevied weather packets stored in our database for station/object W9PEM-13. If no packets are shown the sender has not sent any weather packets the latest 10 day(s).
| Time | Temp. | Humidity | Pressure | Rain* | Wind** | Luminosity | Snow |
|---|---|---|---|---|---|---|---|
| 1777868271 | 13.89° C | 62% | 973.8 hPa | 0 mm | - | 0 W/m² | - |
| 1777867671 | 13.89° C | 62% | 973.9 hPa | 0 mm | - | 0 W/m² | - |
| 1777867071 | 13.89° C | 61% | 974 hPa | 0 mm | - | 0 W/m² | - |
| 1777866471 | 13.33° C | 64% | 974 hPa | 0 mm | - | 0 W/m² | - |
| 1777865872 | 13.89° C | 62% | 974.1 hPa | 0 mm | - | 0 W/m² | - |
| 1777865271 | 13.89° C | 62% | 974.2 hPa | 0 mm | - | 0 W/m² | - |
| 1777864671 | 14.44° C | 60% | 974.2 hPa | 0 mm | - | 0 W/m² | - |
| 1777864071 | 14.44° C | 59% | 974.2 hPa | 0 mm | - | 0 W/m² | - |
| 1777863472 | 14.44° C | 61% | 974.2 hPa | 0 mm | - | 0 W/m² | - |
| 1777862871 | 14.44° C | 60% | 974.1 hPa | 0 mm | - | 0 W/m² | - |
| 1777862271 | 15° C | 59% | 974.1 hPa | 0 mm | - | 0 W/m² | - |
| 1777861671 | 15° C | 58% | 974.1 hPa | 0 mm | - | 0 W/m² | - |
| 1777861071 | 15° C | 58% | 974 hPa | 0 mm | - | 0 W/m² | - |
| 1777860471 | 15° C | 58% | 973.9 hPa | 0 mm | - | 0 W/m² | - |
| 1777857471 | 15.56° C | 56% | 973.8 hPa | 0 mm | - | 0 W/m² | - |
| 1777856871 | 16.11° C | 56% | 973.8 hPa | 0 mm | - | 1 W/m² | - |
| 1777849670 | 19.44° C | 47% | 973.7 hPa | 0 mm | - | 175 W/m² | - |
| 1777846611 | 18.89° C | 46% | 973.9 hPa | 0 mm | - | 324 W/m² | - |
| 1777846131 | 18.89° C | 47% | 974 hPa | 0 mm | - | 342 W/m² | - |
| 1777846011 | 18.89° C | 47% | 974 hPa | 0 mm | - | 350 W/m² | - |
| 1777845353 | 18.89° C | 47% | 974 hPa | 0 mm | - | 384 W/m² | - |
| 1777845173 | 18.89° C | 46% | 974.1 hPa | 0 mm | - | 388 W/m² | - |
| 1777844575 | 18.89° C | 46% | 974.2 hPa | 0.25 mm | - | 404 W/m² | - |
| 1777843972 | 18.89° C | 47% | 974.1 hPa | 0.25 mm | - | 456 W/m² | - |
| 1777842596 | 18.89° C | 49% | 974.3 hPa | 0.25 mm | - | 423 W/m² | - |
* Rain latest hour (hover to see other rain measurements)
** Current wind speed in m/s (hover to see current wind gust speed)